createdAt,value
2016-06-20T00:00:23.540Z,13.24
2016-06-20T00:01:23.543Z,13.19
2016-06-20T00:02:23.547Z,13.19
2016-06-20T00:03:23.534Z,13.16
2016-06-20T00:04:22.944Z,13.16
2016-06-20T00:05:23.557Z,13.08
2016-06-20T00:06:23.544Z,13.11
2016-06-20T00:07:23.548Z,13.06
2016-06-20T00:08:23.536Z,13.02
2016-06-20T00:09:23.540Z,13.05
2016-06-20T00:10:23.543Z,12.98
2016-06-20T00:11:23.547Z,13.01
2016-06-20T00:12:23.550Z,12.94
2016-06-20T00:13:23.553Z,12.99
2016-06-20T00:14:22.322Z,12.95
2016-06-20T00:15:23.561Z,12.93
2016-06-20T00:16:23.548Z,12.91
2016-06-20T00:17:23.551Z,12.95
2016-06-20T00:18:22.946Z,12.86
2016-06-20T00:19:23.559Z,12.95
2016-06-20T00:20:23.546Z,12.86
2016-06-20T00:21:23.565Z,12.86
2016-06-20T00:22:23.553Z,12.88
2016-06-20T00:23:23.556Z,12.81
2016-06-20T00:24:23.560Z,12.84
2016-06-20T00:25:22.954Z,12.86
2016-06-20T00:26:22.348Z,12.8
2016-06-20T00:27:23.556Z,12.69
2016-06-20T00:28:23.012Z,12.75
2016-06-20T00:29:23.562Z,12.87
2016-06-20T00:30:23.580Z,12.69
2016-06-20T00:31:23.569Z,12.68
2016-06-20T00:32:23.557Z,12.73
2016-06-20T00:33:23.560Z,12.75
2016-06-20T00:34:23.579Z,12.68
2016-06-20T00:35:23.598Z,12.65
2016-06-20T00:36:23.571Z,12.58
2016-06-20T00:37:23.574Z,12.54
2016-06-20T00:38:23.577Z,12.58
2016-06-20T00:39:23.628Z,12.57
2016-06-20T00:40:23.569Z,12.5
2016-06-20T00:41:23.572Z,12.47
2016-06-20T00:42:23.576Z,12.47
2016-06-20T00:43:23.580Z,12.43
2016-06-20T00:44:23.583Z,12.36
2016-06-20T00:45:23.587Z,12.37
2016-06-20T00:46:22.965Z,12.29
2016-06-20T00:47:23.578Z,12.33
2016-06-20T00:48:23.581Z,12.3
2016-06-20T00:49:23.601Z,12.35
2016-06-20T00:50:23.634Z,12.33
2016-06-20T00:51:23.591Z,12.17
2016-06-20T00:52:23.594Z,12.15
2016-06-20T00:53:23.582Z,12.21
2016-06-20T00:54:23.648Z,12.17
2016-06-20T00:55:23.589Z,12.07
2016-06-20T00:56:23.592Z,12.12
2016-06-20T00:57:23.596Z,12.14
2016-06-20T00:58:23.599Z,12.1
2016-06-20T00:59:23.619Z,12.07
2016-06-20T01:00:23.592Z,12.15
2016-06-20T01:01:23.595Z,12.11
2016-06-20T01:02:23.598Z,12.11
2016-06-20T01:03:23.617Z,12.08
2016-06-20T01:04:23.605Z,12.1
2016-06-20T01:05:23.609Z,12.17
2016-06-20T01:06:23.002Z,12.17
2016-06-20T01:07:23.600Z,12.17
2016-06-20T01:08:22.994Z,12.18
2016-06-20T01:09:23.606Z,12.2
2016-06-20T01:10:23.610Z,12.25
2016-06-20T01:11:23.598Z,12.25
2016-06-20T01:12:23.008Z,12.3
2016-06-20T01:13:23.620Z,12.29
2016-06-20T01:14:23.608Z,12.33
2016-06-20T01:15:23.612Z,12.32
2016-06-20T01:16:23.615Z,12.29
2016-06-20T01:17:23.618Z,12.28
2016-06-20T01:18:23.606Z,12.32
2016-06-20T01:19:23.610Z,12.33
2016-06-20T01:20:23.614Z,12.4
2016-06-20T01:21:23.632Z,12.33
2016-06-20T01:22:23.620Z,12.4
2016-06-20T01:23:23.608Z,12.48
2016-06-20T01:24:23.628Z,12.44
2016-06-20T01:25:23.615Z,12.5
2016-06-20T01:26:23.618Z,12.51
2016-06-20T01:27:23.622Z,12.5
2016-06-20T01:28:23.032Z,12.47
2016-06-20T01:29:23.629Z,12.51
2016-06-20T01:30:23.632Z,12.54
2016-06-20T01:31:23.636Z,12.36
2016-06-20T01:32:23.625Z,12.51
2016-06-20T01:33:23.643Z,12.47
2016-06-20T01:34:23.631Z,12.5
2016-06-20T01:35:23.634Z,12.51
2016-06-20T01:36:23.622Z,12.5
2016-06-20T01:37:23.642Z,12.53
2016-06-20T01:38:23.629Z,12.54
2016-06-20T01:39:23.617Z,12.53
2016-06-20T01:40:23.636Z,12.5
2016-06-20T01:41:23.030Z,12.48
2016-06-20T01:42:23.627Z,12.45
2016-06-20T01:43:23.052Z,12.47
2016-06-20T01:44:23.634Z,12.4
2016-06-20T01:45:23.637Z,12.5
2016-06-20T01:46:23.640Z,12.43
2016-06-20T01:47:23.644Z,12.5
2016-06-20T01:48:23.663Z,12.5
2016-06-20T01:49:23.636Z,12.48
2016-06-20T01:50:23.639Z,12.5
2016-06-20T01:51:23.033Z,12.51
2016-06-20T01:52:23.646Z,12.5
2016-06-20T01:53:23.634Z,12.54
2016-06-20T01:54:23.638Z,12.54
2016-06-20T01:55:23.641Z,12.51
2016-06-20T01:56:23.644Z,12.5
2016-06-20T01:57:23.648Z,12.45
2016-06-20T01:58:22.432Z,12.45
2016-06-20T01:59:23.030Z,12.44
2016-06-20T02:00:23.658Z,12.4
2016-06-20T02:01:23.052Z,12.37
2016-06-20T02:02:23.040Z,12.37
2016-06-20T02:03:23.637Z,12.36
2016-06-20T02:04:23.655Z,12.26
2016-06-20T02:05:23.659Z,12.21
2016-06-20T02:06:23.663Z,12.18
2016-06-20T02:07:23.041Z,12.23
2016-06-20T02:08:23.655Z,12.15
2016-06-20T02:09:23.658Z,12.1
2016-06-20T02:10:23.662Z,12.17
2016-06-20T02:11:23.649Z,12.15
2016-06-20T02:12:23.669Z,11.96
2016-06-20T02:13:23.047Z,12.03
2016-06-20T02:14:23.660Z,11.99
2016-06-20T02:15:23.663Z,11.89
2016-06-20T02:16:23.666Z,11.83
2016-06-20T02:17:23.670Z,11.81
2016-06-20T02:18:23.658Z,11.76
2016-06-20T02:19:23.661Z,11.73
2016-06-20T02:20:23.665Z,11.71
2016-06-20T02:21:23.058Z,11.68
2016-06-20T02:22:22.437Z,11.48
2016-06-20T02:23:23.082Z,11.49
2016-06-20T02:24:23.725Z,11.49
2016-06-20T02:25:23.697Z,11.44
2016-06-20T02:26:23.670Z,11.38
2016-06-20T02:27:23.689Z,11.35
2016-06-20T02:28:23.677Z,11.34
2016-06-20T02:29:23.665Z,11.3
2016-06-20T02:30:23.059Z,11.25
2016-06-20T02:31:23.062Z,11.13
2016-06-20T02:32:23.066Z,11.12
2016-06-20T02:33:23.053Z,11.05
2016-06-20T02:34:23.697Z,11.07
2016-06-20T02:35:23.685Z,10.98
2016-06-20T02:36:23.673Z,10.94
2016-06-20T02:37:23.692Z,10.79
2016-06-20T02:38:23.680Z,10.77
2016-06-20T02:39:23.698Z,10.79
2016-06-20T02:40:23.671Z,10.8
2016-06-20T02:41:23.691Z,10.77
2016-06-20T02:42:23.678Z,10.75
2016-06-20T02:43:23.073Z,10.71
2016-06-20T02:44:23.716Z,10.64
2016-06-20T02:45:23.689Z,10.64
2016-06-20T02:46:22.473Z,10.61
2016-06-20T02:47:23.679Z,10.55
2016-06-20T02:48:23.074Z,10.48
2016-06-20T02:49:23.703Z,10.57
2016-06-20T02:50:23.689Z,10.46
2016-06-20T02:51:23.693Z,10.48
2016-06-20T02:52:23.697Z,10.45
2016-06-20T02:53:23.685Z,10.41
2016-06-20T02:54:23.078Z,10.38
2016-06-20T02:55:23.692Z,10.31
2016-06-20T02:56:23.700Z,10.31
2016-06-20T02:57:23.712Z,10.17
2016-06-20T02:58:23.708Z,10.18
2016-06-20T02:59:23.736Z,10.21
2016-06-20T03:00:23.122Z,10.18
2016-06-20T03:01:23.741Z,10.1
2016-06-20T03:02:23.747Z,10.03
2016-06-20T03:03:23.754Z,10.06
2016-06-20T03:04:23.746Z,10.1
2016-06-20T03:05:23.752Z,10.05
2016-06-20T03:06:23.758Z,10.12
2016-06-20T03:07:23.762Z,10.03
2016-06-20T03:08:23.781Z,10.05
2016-06-20T03:09:23.755Z,10.12
2016-06-20T03:10:23.776Z,10.03
2016-06-20T03:11:23.764Z,9.92
2016-06-20T03:12:23.767Z,9.95
2016-06-20T03:13:23.772Z,9.85
2016-06-20T03:14:23.776Z,9.88
2016-06-20T03:15:23.779Z,9.84
2016-06-20T03:16:23.767Z,9.9
2016-06-20T03:17:23.787Z,9.9
2016-06-20T03:18:23.775Z,9.92
2016-06-20T03:19:23.778Z,9.9
2016-06-20T03:20:23.158Z,9.84
2016-06-20T03:21:23.786Z,9.9
2016-06-20T03:22:23.790Z,9.88
2016-06-20T03:23:23.778Z,9.9
2016-06-20T03:24:23.188Z,9.95
2016-06-20T03:25:23.785Z,9.94
2016-06-20T03:26:23.789Z,9.91
2016-06-20T03:27:23.776Z,10
2016-06-20T03:28:23.779Z,10
2016-06-20T03:29:23.783Z,9.88
2016-06-20T03:30:23.786Z,9.94
2016-06-20T03:31:23.789Z,9.87
2016-06-20T03:32:23.809Z,9.91
2016-06-20T03:33:23.797Z,9.87
2016-06-20T03:34:23.800Z,9.77
2016-06-20T03:35:23.787Z,9.85
2016-06-20T03:36:23.807Z,9.87
2016-06-20T03:37:23.810Z,9.87
2016-06-20T03:38:23.798Z,9.91
2016-06-20T03:39:23.787Z,9.85
2016-06-20T03:40:23.805Z,9.9
2016-06-20T03:41:23.794Z,9.95
2016-06-20T03:42:23.781Z,9.92
2016-06-20T03:43:23.800Z,10.09
2016-06-20T03:44:23.819Z,10.07
2016-06-20T03:45:23.792Z,10.07
2016-06-20T03:46:23.185Z,10.13
2016-06-20T03:47:23.798Z,10.2
2016-06-20T03:48:23.801Z,10.3
2016-06-20T03:49:23.196Z,10.28
2016-06-20T03:50:23.793Z,10.45
2016-06-20T03:51:23.797Z,10.48
2016-06-20T03:52:23.800Z,10.61
2016-06-20T03:53:23.804Z,10.68
2016-06-20T03:54:23.807Z,10.95
2016-06-20T03:55:23.186Z,11.35
2016-06-20T03:56:23.798Z,11.62
2016-06-20T03:57:23.818Z,11.96
2016-06-20T03:58:23.805Z,12.33
2016-06-20T03:59:23.809Z,12.62
2016-06-20T04:00:23.203Z,12.86
2016-06-20T04:01:23.815Z,13.16
2016-06-20T04:02:23.803Z,13.36
2016-06-20T04:03:23.806Z,13.75
2016-06-20T04:04:23.201Z,13.98
2016-06-20T04:05:23.813Z,14.26
2016-06-20T04:06:23.816Z,14.61
2016-06-20T04:07:23.820Z,14.94
2016-06-20T04:08:23.840Z,15.08
2016-06-20T04:09:23.812Z,15.33
2016-06-20T04:10:23.816Z,15.75
2016-06-20T04:11:23.209Z,15.76
2016-06-20T04:12:23.822Z,16
2016-06-20T04:13:23.826Z,16.46
2016-06-20T04:14:23.877Z,16.51
2016-06-20T04:15:23.817Z,16.86
2016-06-20T04:16:23.821Z,17.16
2016-06-20T04:17:23.824Z,17.35
2016-06-20T04:18:23.827Z,17.44
2016-06-20T04:19:23.222Z,17.68
2016-06-20T04:20:23.819Z,17.98
2016-06-20T04:21:23.837Z,18.08
2016-06-20T04:22:23.825Z,18.41
2016-06-20T04:23:23.844Z,18.71
2016-06-20T04:24:23.239Z,19.16
2016-06-20T04:25:23.835Z,19.52
2016-06-20T04:26:23.839Z,19.82
2016-06-20T04:27:23.842Z,20.03
2016-06-20T04:28:23.846Z,20.29
2016-06-20T04:29:23.865Z,20.66
2016-06-20T04:30:23.853Z,20.88
2016-06-20T04:31:23.857Z,21.19
2016-06-20T04:32:23.860Z,21.43
2016-06-20T04:33:23.863Z,21.59
2016-06-20T04:34:23.866Z,21.74
2016-06-20T04:35:23.855Z,21.89
2016-06-20T04:36:23.873Z,21.97
2016-06-20T04:37:23.862Z,22.07
2016-06-20T04:38:23.865Z,22.21
2016-06-20T04:39:23.259Z,22.46
2016-06-20T04:40:23.872Z,22.67
2016-06-20T04:41:23.876Z,22.81
2016-06-20T04:42:23.879Z,22.99
2016-06-20T04:43:23.930Z,23.11
2016-06-20T04:44:23.886Z,23.33
2016-06-20T04:45:23.280Z,23.49
2016-06-20T04:46:23.283Z,23.62
2016-06-20T04:47:23.897Z,23.76
2016-06-20T04:48:23.900Z,23.96
2016-06-20T04:49:23.903Z,24
2016-06-20T04:50:23.907Z,24.01
2016-06-20T04:51:23.911Z,24.1
2016-06-20T04:52:23.913Z,24.13
2016-06-20T04:53:23.323Z,24.03
2016-06-20T04:54:23.921Z,24.03
2016-06-20T04:55:23.314Z,24.25
2016-06-20T04:56:23.927Z,24.37
2016-06-20T04:57:23.931Z,24.75
2016-06-20T04:58:23.981Z,24.94
2016-06-20T04:59:23.938Z,25.24
2016-06-20T05:00:23.942Z,25.52
2016-06-20T05:01:23.367Z,25.91
2016-06-20T05:02:23.949Z,26.22
2016-06-20T05:03:23.967Z,26.53
2016-06-20T05:04:23.361Z,26.73
2016-06-20T05:05:23.974Z,26.98
2016-06-20T05:06:24.010Z,27.38
2016-06-20T05:07:23.981Z,27.67
2016-06-20T05:08:23.984Z,28.08
2016-06-20T05:09:23.988Z,28.38
2016-06-20T05:10:23.991Z,28.64
2016-06-20T05:11:23.994Z,28.47
2016-06-20T05:12:23.998Z,28.25
2016-06-20T05:13:24.001Z,27.97
2016-06-20T05:14:24.005Z,27.45
2016-06-20T05:15:24.008Z,26.97
2016-06-20T05:16:24.012Z,26.33
2016-06-20T05:17:24.032Z,25.85
2016-06-20T05:18:24.035Z,25.39
2016-06-20T05:19:24.038Z,24.82
2016-06-20T05:20:24.073Z,24.29
2016-06-20T05:21:24.045Z,23.71
2016-06-20T05:22:24.048Z,23.21
2016-06-20T05:23:24.052Z,22.86
2016-06-20T05:24:24.086Z,22.77
2016-06-20T05:25:24.059Z,22.44
2016-06-20T05:26:24.062Z,22.41
2016-06-20T05:27:24.066Z,22.06
2016-06-20T05:28:23.475Z,21.92
2016-06-20T05:29:23.479Z,21.75
2016-06-20T05:30:24.092Z,21.68
2016-06-20T05:31:24.096Z,21.68
2016-06-20T05:32:24.114Z,21.83
2016-06-20T05:33:24.102Z,22.06
2016-06-20T05:34:24.106Z,22.36
2016-06-20T05:35:24.141Z,22.73
2016-06-20T05:36:24.113Z,22.96
2016-06-20T05:37:24.117Z,23.29
2016-06-20T05:38:24.135Z,23.52
2016-06-20T05:39:24.138Z,23.99
2016-06-20T05:40:24.127Z,24.5
2016-06-20T05:41:23.536Z,25.19
2016-06-20T05:42:23.540Z,26.1
2016-06-20T05:43:24.152Z,27.08
2016-06-20T05:44:24.155Z,28.34
2016-06-20T05:45:23.566Z,29.28
2016-06-20T05:46:24.273Z,30.36
2016-06-20T05:47:24.166Z,31.08
2016-06-20T05:48:24.185Z,31.74
2016-06-20T05:49:24.189Z,32.46
2016-06-20T05:50:24.192Z,32.79
2016-06-20T05:51:24.196Z,33.33
2016-06-20T05:52:24.199Z,33.79
2016-06-20T05:53:24.219Z,34.26
2016-06-20T05:54:24.222Z,34.75
2016-06-20T05:55:24.226Z,35.19
2016-06-20T05:56:23.619Z,35.44
2016-06-20T05:57:24.232Z,35.76
2016-06-20T05:58:24.392Z,36.24
2016-06-20T05:59:24.239Z,36.5
2016-06-20T06:00:24.258Z,36.55
2016-06-20T06:01:24.247Z,36.32
2016-06-20T06:02:24.265Z,35.96
2016-06-20T06:03:24.299Z,35.22
2016-06-20T06:04:24.272Z,34.79
2016-06-20T06:05:24.291Z,34.53
2016-06-20T06:06:24.295Z,34.24
2016-06-20T06:07:24.298Z,34.06
2016-06-20T06:08:23.704Z,33.81
2016-06-20T06:09:24.302Z,33.77
2016-06-20T06:10:24.320Z,33.91
2016-06-20T06:11:23.714Z,34
2016-06-20T06:12:24.343Z,34.26
2016-06-20T06:13:24.346Z,34.4
2016-06-20T06:14:24.381Z,34.58
2016-06-20T06:15:24.369Z,34.81
2016-06-20T06:16:24.357Z,35.15
2016-06-20T06:17:24.361Z,35.5
2016-06-20T06:18:24.379Z,35.69
2016-06-20T06:19:24.649Z,35.93
2016-06-20T06:20:24.402Z,36.06
2016-06-20T06:21:24.405Z,36.26
2016-06-20T06:22:24.409Z,36.32
2016-06-20T06:23:24.428Z,36.45
2016-06-20T06:24:25.029Z,36.76
2016-06-20T06:25:24.435Z,36.87
2016-06-20T06:26:24.438Z,37.16
2016-06-20T06:27:24.458Z,37.31
2016-06-20T06:28:59.371Z,37.64
2016-06-20T06:29:24.465Z,37.8
2016-06-20T06:30:23.874Z,37.94
2016-06-20T06:31:23.878Z,38.09
2016-06-20T06:32:23.896Z,38.34
2016-06-20T06:33:24.510Z,38.53
2016-06-20T06:34:24.700Z,38.57
2016-06-20T06:35:24.531Z,38.54
2016-06-20T06:36:24.535Z,38.9
2016-06-20T06:37:24.554Z,39.27
2016-06-20T06:38:24.589Z,39.91
2016-06-20T06:39:25.389Z,40.54
2016-06-20T06:40:24.565Z,41
2016-06-20T06:41:24.568Z,41.39
2016-06-20T06:42:24.587Z,41.51
2016-06-20T06:43:24.591Z,41.51
2016-06-20T06:44:24.625Z,41.53
2016-06-20T06:45:24.630Z,41.51
2016-06-20T06:46:24.649Z,41.05
2016-06-20T06:47:24.636Z,40.64
2016-06-20T06:48:24.656Z,40.13
2016-06-20T06:49:24.768Z,39.89
2016-06-20T06:50:24.678Z,39.56
2016-06-20T06:51:24.681Z,39.64
2016-06-20T06:52:24.685Z,39.7
2016-06-20T06:53:24.704Z,39.56
2016-06-20T06:54:24.707Z,39.7
2016-06-20T06:55:24.742Z,39.66
2016-06-20T06:56:24.729Z,39.75
2016-06-20T06:57:24.733Z,39.33
2016-06-20T06:58:24.752Z,38.51
2016-06-20T06:59:24.756Z,37.58
2016-06-20T07:00:24.775Z,36.87
2016-06-20T07:01:24.779Z,36.89
2016-06-20T07:02:24.783Z,37
2016-06-20T07:03:24.816Z,37.03
2016-06-20T07:04:24.804Z,36.82
2016-06-20T07:05:24.808Z,36.03
2016-06-20T07:06:24.827Z,35.08
2016-06-20T07:07:24.846Z,33.81
2016-06-20T07:08:24.834Z,32.88
2016-06-20T07:09:24.854Z,31.78
2016-06-20T07:10:24.857Z,30.77
2016-06-20T07:11:24.875Z,29.69
2016-06-20T07:12:24.879Z,29.02
2016-06-20T07:13:24.898Z,28.72
2016-06-20T07:14:24.902Z,29.22
2016-06-20T07:15:24.905Z,30.23
2016-06-20T07:16:24.908Z,31.69
2016-06-20T07:17:24.927Z,33.38
2016-06-20T07:18:25.041Z,35.13
2016-06-20T07:19:24.950Z,36.43
2016-06-20T07:20:24.953Z,37.18
2016-06-20T07:21:24.973Z,37.79
2016-06-20T07:22:24.976Z,37.94
2016-06-20T07:23:24.995Z,37.72
2016-06-20T07:24:24.999Z,37.16
2016-06-20T07:25:25.001Z,36.39
2016-06-20T07:26:25.005Z,35.63
2016-06-20T07:27:25.024Z,34.6
2016-06-20T07:28:25.028Z,33.82
2016-06-20T07:29:25.032Z,33.13
2016-06-20T07:30:25.041Z,32.48
2016-06-20T07:31:24.474Z,31.97
2016-06-20T07:32:25.094Z,31.64
2016-06-20T07:33:25.105Z,31.62
2016-06-20T07:34:25.240Z,31.41
2016-06-20T07:35:25.122Z,31.02
2016-06-20T07:36:25.144Z,30.78
2016-06-20T07:37:25.149Z,30.62
2016-06-20T07:38:25.155Z,30.35
2016-06-20T07:39:25.161Z,30.02
2016-06-20T07:40:25.166Z,29.77
2016-06-20T07:41:25.186Z,29.42
2016-06-20T07:42:25.206Z,29.22
2016-06-20T07:43:25.194Z,28.94
2016-06-20T07:44:24.887Z,28.74
2016-06-20T07:45:25.235Z,28.46
2016-06-20T07:46:25.301Z,28.2
2016-06-20T07:47:25.242Z,27.93
2016-06-20T07:48:25.247Z,27.78
2016-06-20T07:49:25.265Z,27.79
2016-06-20T07:50:25.254Z,27.94
2016-06-20T07:51:25.273Z,28.25
2016-06-20T07:52:25.275Z,29.43
2016-06-20T07:53:25.265Z,30.96
2016-06-20T07:54:25.282Z,32.64
2016-06-20T07:55:25.286Z,34.33
2016-06-20T07:56:25.306Z,36.22
2016-06-20T07:57:25.293Z,37.67
2016-06-20T07:58:25.313Z,39.04
2016-06-20T07:59:25.316Z,39.66
2016-06-20T08:00:25.336Z,39.93
2016-06-20T08:01:25.323Z,40.43
2016-06-20T08:02:25.342Z,40.89
2016-06-20T08:03:25.361Z,41.53
2016-06-20T08:04:25.364Z,42.33
2016-06-20T08:05:25.368Z,43
2016-06-20T08:06:25.388Z,43.75
2016-06-20T08:07:25.406Z,44.13
2016-06-20T08:08:25.394Z,44.87
2016-06-20T08:09:25.398Z,45.37
2016-06-20T08:10:25.416Z,45.76
2016-06-20T08:11:25.624Z,45.73
2016-06-20T08:12:25.423Z,45.58
2016-06-20T08:13:25.458Z,45.28
2016-06-20T08:14:25.446Z,45.29
2016-06-20T08:15:25.449Z,45.43
2016-06-20T08:16:25.469Z,45.55
2016-06-20T08:17:25.473Z,45.96
2016-06-20T08:18:25.491Z,46.2
2016-06-20T08:19:25.494Z,46.53
2016-06-20T08:20:25.498Z,46.94
2016-06-20T08:21:25.517Z,47.31
2016-06-20T08:22:25.536Z,46.99
2016-06-20T08:23:25.555Z,46.1
2016-06-20T08:24:25.558Z,44.76
2016-06-20T08:25:25.578Z,43.53
2016-06-20T08:26:25.581Z,42.68
2016-06-20T08:27:25.569Z,42.09
2016-06-20T08:28:24.978Z,41.24
2016-06-20T08:29:25.591Z,40.52
2016-06-20T08:30:25.610Z,40.43
2016-06-20T08:31:25.614Z,40.64
2016-06-20T08:32:25.617Z,41.03
2016-06-20T08:33:25.652Z,41.2
2016-06-20T08:34:25.641Z,41.32
2016-06-20T08:35:25.644Z,41.81
2016-06-20T08:36:25.663Z,42.47
2016-06-20T08:37:25.072Z,43.25
2016-06-20T08:38:25.685Z,44.03
2016-06-20T08:39:26.032Z,44.52
2016-06-20T08:40:25.099Z,44.68
2016-06-20T08:41:26.228Z,44.04
2016-06-20T08:42:25.730Z,43.7
2016-06-20T08:43:25.718Z,43.46
2016-06-20T08:44:25.847Z,43.61
2016-06-20T08:45:25.756Z,43.87
2016-06-20T08:46:25.760Z,43.92
2016-06-20T08:47:25.763Z,44.5
2016-06-20T08:48:25.782Z,45.04
2016-06-20T08:49:25.973Z,45.73
2016-06-20T08:50:25.805Z,46.35
2016-06-20T08:51:25.808Z,47.3
2016-06-20T08:52:25.828Z,47.95
2016-06-20T08:53:25.831Z,48.64
2016-06-20T08:54:26.287Z,49.78
2016-06-20T08:55:25.901Z,50.25
2016-06-20T08:56:25.858Z,50.9
2016-06-20T08:57:25.861Z,51.25
2016-06-20T08:58:25.895Z,51.68
2016-06-20T08:59:25.883Z,51.62
2016-06-20T09:00:25.886Z,51.55
2016-06-20T09:01:25.905Z,51.58
2016-06-20T09:02:25.909Z,51.7
2016-06-20T09:03:25.929Z,51.88
2016-06-20T09:04:25.932Z,52.02
2016-06-20T09:05:25.951Z,52.14
2016-06-20T09:06:25.969Z,51.98
2016-06-20T09:07:25.974Z,51.71
2016-06-20T09:08:25.977Z,51.5
2016-06-20T09:09:25.995Z,51.46
2016-06-20T09:10:25.999Z,51.56
2016-06-20T09:11:26.003Z,51.63
2016-06-20T09:12:26.038Z,51.59
2016-06-20T09:13:26.026Z,51.43
2016-06-20T09:14:26.028Z,51.16
2016-06-20T09:15:25.438Z,51.11
2016-06-20T09:16:26.052Z,51.08
2016-06-20T09:17:26.086Z,51.16
2016-06-20T09:18:26.073Z,51.2
2016-06-20T09:19:26.124Z,51.31
2016-06-20T09:20:26.096Z,51.56
2016-06-20T09:21:26.084Z,51.71
2016-06-20T09:22:26.103Z,51.86
2016-06-20T09:23:25.513Z,51.93
2016-06-20T09:24:26.126Z,51.59
2016-06-20T09:25:26.129Z,51.28
2016-06-20T09:26:26.148Z,51.08
2016-06-20T09:27:26.152Z,51.05
2016-06-20T09:28:26.171Z,51.02
2016-06-20T09:29:26.158Z,51.12
2016-06-20T09:30:26.162Z,51.2
2016-06-20T09:31:25.571Z,51.13
2016-06-20T09:32:25.591Z,50.97
2016-06-20T09:33:25.579Z,50.89
2016-06-20T09:34:26.206Z,50.52
2016-06-20T09:35:26.242Z,49.98
2016-06-20T09:36:26.214Z,48.71
2016-06-20T09:37:26.217Z,47.19
2016-06-20T09:38:26.236Z,45.89
2016-06-20T09:39:26.240Z,44.13
2016-06-20T09:40:26.243Z,42.49
2016-06-20T09:41:26.247Z,41.07
2016-06-20T09:42:26.250Z,40.02
2016-06-20T09:43:25.660Z,39.27
2016-06-20T09:44:26.274Z,38.56
2016-06-20T09:45:26.292Z,37.94
2016-06-20T09:46:26.312Z,37.43
2016-06-20T09:47:25.690Z,36.82
2016-06-20T09:48:26.303Z,35.91
2016-06-20T09:49:26.322Z,35.07
2016-06-20T09:50:26.325Z,34.5
2016-06-20T09:51:26.344Z,34.13
2016-06-20T09:52:26.348Z,33.85
2016-06-20T09:53:25.741Z,33.38
2016-06-20T09:54:25.745Z,32.95
2016-06-20T09:55:25.733Z,32.57
2016-06-20T09:56:26.362Z,32.38
2016-06-20T09:57:26.365Z,32.08
2016-06-20T09:58:26.369Z,31.81
2016-06-20T09:59:26.387Z,31.47
2016-06-20T10:00:26.391Z,31.22
2016-06-20T10:01:26.394Z,30.98
2016-06-20T10:02:26.397Z,30.77
2016-06-20T10:03:26.401Z,30.36
2016-06-20T10:04:26.404Z,30.1
2016-06-20T10:05:25.814Z,29.92
2016-06-20T10:06:25.834Z,29.61
2016-06-20T10:07:26.446Z,29.49
2016-06-20T10:08:25.825Z,29.35
2016-06-20T10:09:26.438Z,29.18
2016-06-20T10:10:26.473Z,29.06
2016-06-20T10:11:26.445Z,28.94
2016-06-20T10:12:26.464Z,28.7
2016-06-20T10:13:26.483Z,28.64
2016-06-20T10:14:26.486Z,28.64
2016-06-20T10:15:26.489Z,28.59
2016-06-20T10:16:26.494Z,28.68
2016-06-20T10:17:25.888Z,28.65
2016-06-20T10:18:25.938Z,28.64
2016-06-20T10:19:26.535Z,28.59
2016-06-20T10:20:26.523Z,28.67
2016-06-20T10:21:26.526Z,28.62
2016-06-20T10:22:26.530Z,28.5
2016-06-20T10:23:26.534Z,28.52
2016-06-20T10:24:26.537Z,28.65
2016-06-20T10:25:26.540Z,28.72
2016-06-20T10:26:26.559Z,28.71
2016-06-20T10:27:26.547Z,28.71
2016-06-20T10:28:26.565Z,28.71
2016-06-20T10:29:25.960Z,28.75
2016-06-20T10:30:26.589Z,28.74
2016-06-20T10:31:26.576Z,28.67
2016-06-20T10:32:26.580Z,28.62
2016-06-20T10:33:26.583Z,28.62
2016-06-20T10:34:26.603Z,28.56
2016-06-20T10:35:26.590Z,28.37
2016-06-20T10:36:26.610Z,28
2016-06-20T10:37:26.613Z,27.61
2016-06-20T10:38:26.616Z,27.34
2016-06-20T10:39:26.620Z,27.07
2016-06-20T10:40:26.639Z,27
2016-06-20T10:41:26.642Z,26.92
2016-06-20T10:42:26.036Z,27
2016-06-20T10:43:26.650Z,26.98
2016-06-20T10:44:26.653Z,26.97
2016-06-20T10:45:26.671Z,26.92
2016-06-20T10:46:26.691Z,26.97
2016-06-20T10:47:26.664Z,26.88
2016-06-20T10:48:26.682Z,26.85
2016-06-20T10:49:26.686Z,26.92
2016-06-20T10:50:26.674Z,26.89
2016-06-20T10:51:26.693Z,26.74
2016-06-20T10:52:26.712Z,26.73
2016-06-20T10:53:26.699Z,26.78
2016-06-20T10:54:26.703Z,26.73
2016-06-20T10:55:26.722Z,26.7
2016-06-20T10:56:26.726Z,26.76
2016-06-20T10:57:26.135Z,26.63
2016-06-20T10:58:26.733Z,26.55
2016-06-20T10:59:26.751Z,26.64
2016-06-20T11:00:26.739Z,26.67
2016-06-20T11:01:26.743Z,26.66
2016-06-20T11:02:26.153Z,26.71
2016-06-20T11:03:26.765Z,26.82
2016-06-20T11:04:25.565Z,26.79
2016-06-20T11:05:26.788Z,26.76
2016-06-20T11:06:25.557Z,26.67
2016-06-20T11:07:26.779Z,26.39
2016-06-20T11:08:26.814Z,26.31
2016-06-20T11:09:26.801Z,25.96
2016-06-20T11:10:26.805Z,25.71
2016-06-20T11:11:26.809Z,25.44
2016-06-20T11:12:26.796Z,25.22
2016-06-20T11:13:26.815Z,25.12
2016-06-20T11:14:26.819Z,25.16
2016-06-20T11:15:26.822Z,25.12
2016-06-20T11:16:26.810Z,25.18
2016-06-20T11:17:26.830Z,25.24
2016-06-20T11:18:26.239Z,25.34
2016-06-20T11:19:26.227Z,25.44
2016-06-20T11:20:26.840Z,25.66
2016-06-20T11:21:26.234Z,25.61
2016-06-20T11:22:26.863Z,25.71
2016-06-20T11:23:26.866Z,25.81
2016-06-20T11:24:26.260Z,25.85
2016-06-20T11:25:26.873Z,25.74
2016-06-20T11:26:26.908Z,25.8
2016-06-20T11:27:26.895Z,25.89
2016-06-20T11:28:26.883Z,25.81
2016-06-20T11:29:26.902Z,25.85
2016-06-20T11:30:26.890Z,25.78
2016-06-20T11:31:26.909Z,25.77
2016-06-20T11:32:25.694Z,25.83
2016-06-20T11:33:26.915Z,25.86
2016-06-20T11:34:26.904Z,26.06
2016-06-20T11:35:26.329Z,26.13
2016-06-20T11:36:26.911Z,26.24
2016-06-20T11:37:26.930Z,26.18
2016-06-20T11:38:26.933Z,26.24
2016-06-20T11:39:26.936Z,26.29
2016-06-20T11:40:26.940Z,26.34
2016-06-20T11:41:26.943Z,26.19
2016-06-20T11:42:26.963Z,26.26
2016-06-20T11:43:26.951Z,26.27
2016-06-20T11:44:26.970Z,26.27
2016-06-20T11:45:26.364Z,26.24
2016-06-20T11:46:26.993Z,26.34
2016-06-20T11:47:26.371Z,26.29
2016-06-20T11:48:26.390Z,26.24
2016-06-20T11:49:27.003Z,26.26
2016-06-20T11:50:26.991Z,26.24
2016-06-20T11:51:27.025Z,26.31
2016-06-20T11:52:27.013Z,26.15
2016-06-20T11:53:27.000Z,26.22
2016-06-20T11:54:27.020Z,26.22
2016-06-20T11:55:27.008Z,26.16
2016-06-20T11:56:27.027Z,25.92
2016-06-20T11:57:27.031Z,25.81
2016-06-20T11:58:26.424Z,25.73
2016-06-20T12:11:29.529Z,24.81
2016-06-20T12:11:41.717Z,24.86
2016-06-20T12:12:42.768Z,24.77
2016-06-20T12:13:42.115Z,24.79
2016-06-20T12:14:41.760Z,24.69
2016-06-20T12:15:41.733Z,24.78
2016-06-20T12:16:41.736Z,24.62
2016-06-20T12:17:41.755Z,24.65
2016-06-20T12:18:41.743Z,24.66
2016-06-20T12:19:41.762Z,24.63
2016-06-20T12:20:41.157Z,24.58
2016-06-20T12:21:41.770Z,24.34
2016-06-20T12:22:41.773Z,24.01
2016-06-20T12:23:41.776Z,23.74
2016-06-20T12:24:41.780Z,23.67
2016-06-20T12:25:41.783Z,23.42
2016-06-20T12:26:41.177Z,23.4
2016-06-20T12:27:41.196Z,23.29
2016-06-20T12:28:41.793Z,23.17
2016-06-20T12:29:41.813Z,23.02
2016-06-20T12:30:41.816Z,23.01
2016-06-20T12:31:41.195Z,22.86
2016-06-20T12:32:41.229Z,22.76
2016-06-20T12:33:41.827Z,22.63
2016-06-20T12:34:41.830Z,22.56
2016-06-20T12:35:41.849Z,22.58
2016-06-20T12:36:41.838Z,22.68
2016-06-20T12:37:41.841Z,22.71
2016-06-20T12:38:41.844Z,22.78
2016-06-20T12:39:41.863Z,22.78
2016-06-20T12:40:41.851Z,22.88
2016-06-20T12:41:41.869Z,23.04
2016-06-20T12:42:41.872Z,23.01
2016-06-20T12:43:41.877Z,23.08
2016-06-20T12:44:41.865Z,23.1
2016-06-20T12:45:41.883Z,23.21
2016-06-20T12:46:41.886Z,23.14
2016-06-20T12:47:41.890Z,23.2
2016-06-20T12:48:41.894Z,23.2
2016-06-20T12:49:41.882Z,23.17
2016-06-20T12:50:41.900Z,23.18
2016-06-20T12:51:41.904Z,23.23
2016-06-20T12:52:41.908Z,23.16
2016-06-20T12:53:41.911Z,23.21
2016-06-20T12:54:41.930Z,23.18
2016-06-20T12:55:41.918Z,23.17
2016-06-20T12:56:41.921Z,23.14
2016-06-20T12:57:41.957Z,23.04
2016-06-20T12:58:41.944Z,23.07
2016-06-20T12:59:41.932Z,23.08
2016-06-20T13:00:41.951Z,23.17
2016-06-20T13:01:41.939Z,23.16
2016-06-20T13:02:41.942Z,23.21
2016-06-20T13:03:41.945Z,23.21
2016-06-20T13:04:42.356Z,23.26
2016-06-20T13:05:41.953Z,23.18
2016-06-20T13:06:41.956Z,23.18
2016-06-20T13:07:41.366Z,23.17